Time;durP1;ratioP1;P1;durP2;ratioP2;P2;SDS_P1;SDS_P2;PMS_P1;PMS_P2;Temp;Humidity;BMP_temperature;BMP_pressure;BME280_temperature;BME280_humidity;BME280_pressure;Samples;Min_cycle;Max_cycle;Signal;HPM_P1;HPM_P2
2022/12/09 00:01:22;;;;;;;12.00;8.73;;;;;;;-2.00;92.17;94467.78;4979743;28;20180;-79
2022/12/09 00:03:48;;;;;;;13.63;9.17;;;;;;;-1.97;92.13;94454.84;4976107;28;20673;-78
2022/12/09 00:06:23;;;;;;;11.27;8.57;;;;;;;-2.00;92.15;94455.88;4974703;28;20666;-79
2022/12/09 00:08:49;;;;;;;13.50;8.87;;;;;;;-2.04;92.22;94456.97;4965629;28;20184;-80
2022/12/09 00:11:15;;;;;;;14.17;9.37;;;;;;;-2.05;91.84;94454.53;4965062;28;20750;-80
2022/12/09 00:13:40;;;;;;;15.33;9.90;;;;;;;-1.96;91.49;94443.75;4961858;28;20202;-80
2022/12/09 00:16:07;;;;;;;12.63;8.73;;;;;;;-2.03;91.01;94457.81;4971323;28;20187;-78
2022/12/09 00:18:33;;;;;;;11.07;8.37;;;;;;;-2.04;91.64;94451.06;4953476;28;20189;-79
2022/12/09 00:20:58;;;;;;;12.80;8.67;;;;;;;-2.03;91.13;94450.97;4968449;28;20576;-77
2022/12/09 00:23:24;;;;;;;13.63;8.23;;;;;;;-2.04;91.18;94449.31;4978760;28;20182;-78
2022/12/09 00:25:49;;;;;;;12.20;8.97;;;;;;;-2.00;91.33;94445.69;4976604;28;20217;-78
2022/12/09 00:28:14;;;;;;;12.67;8.33;;;;;;;-1.97;90.87;94442.13;4971306;28;20188;-78
2022/12/09 00:30:40;;;;;;;11.67;8.50;;;;;;;-1.96;90.70;94437.84;4970009;28;20195;-79
2022/12/09 00:33:05;;;;;;;11.03;8.47;;;;;;;-1.97;90.96;94437.03;4973372;28;20211;-79
2022/12/09 00:35:30;;;;;;;13.13;8.57;;;;;;;-2.01;90.71;94430.53;4975354;28;20220;-79
2022/12/09 00:37:56;;;;;;;10.80;7.87;;;;;;;-1.99;90.58;94433.78;4975906;28;20200;-79
2022/12/09 00:40:21;;;;;;;10.23;7.57;;;;;;;-2.03;90.61;94432.38;4952347;28;20617;-79
2022/12/09 00:42:46;;;;;;;13.17;8.13;;;;;;;-2.00;91.05;94437.25;4964967;28;20203;-79
2022/12/09 00:45:11;;;;;;;10.40;7.60;;;;;;;-2.04;90.53;94441.69;4977100;28;20220;-78
2022/12/09 00:47:37;;;;;;;11.47;7.60;;;;;;;-2.09;90.41;94433.56;4981245;28;20208;-79
2022/12/09 00:50:03;;;;;;;12.17;8.17;;;;;;;-2.10;90.40;94439.56;4962212;28;20187;-79
2022/12/09 00:52:28;;;;;;;12.10;8.00;;;;;;;-2.15;90.26;94433.94;4952376;28;20199;-78
2022/12/09 00:54:54;;;;;;;11.83;7.53;;;;;;;-2.16;90.79;94424.69;4970192;28;20267;-78
2022/12/09 00:57:19;;;;;;;10.13;7.40;;;;;;;-2.22;90.46;94427.63;4970390;28;20570;-79
2022/12/09 00:59:44;;;;;;;12.07;7.40;;;;;;;-2.22;90.71;94429.34;4967975;28;20206;-79
2022/12/09 01:02:09;;;;;;;12.83;7.57;;;;;;;-2.24;90.35;94431.19;4959073;28;20642;-79
2022/12/09 01:04:35;;;;;;;11.57;7.70;;;;;;;-2.27;90.15;94427.13;4966446;28;20211;-77
2022/12/09 01:07:00;;;;;;;9.83;6.70;;;;;;;-2.30;90.26;94437.47;4970693;28;20209;-79
2022/12/09 01:09:25;;;;;;;8.60;6.83;;;;;;;-2.31;90.27;94439.19;4964429;28;20202;-79
2022/12/09 01:11:51;;;;;;;8.43;6.20;;;;;;;-2.29;90.03;94434.03;4967583;28;20195;-79
2022/12/09 01:14:16;;;;;;;11.27;7.23;;;;;;;-2.32;89.84;94439.28;4974697;28;20217;-78
2022/12/09 01:16:41;;;;;;;12.17;6.37;;;;;;;-2.36;90.04;94435.31;4963569;28;20188;-78
2022/12/09 01:19:09;;;;;;;9.90;6.60;;;;;;;-2.35;90.07;94442.03;4970531;28;20568;-78
2022/12/09 01:21:35;;;;;;;8.53;6.43;;;;;;;-2.37;90.04;94443.88;4966483;28;20193;-78
2022/12/09 01:24:05;;;;;;;8.33;5.67;;;;;;;-2.40;89.67;94433.88;4970993;28;20302;-77
2022/12/09 01:26:30;;;;;;;8.73;6.23;;;;;;;-2.40;89.41;94438.97;4961474;28;20189;-78
2022/12/09 01:28:56;;;;;;;7.73;5.43;;;;;;;-2.43;89.18;94429.81;4966554;28;20530;-77
2022/12/09 01:31:22;;;;;;;9.77;6.23;;;;;;;-2.42;88.83;94433.16;4968186;28;20189;-78
2022/12/09 01:33:48;;;;;;;8.83;5.93;;;;;;;-2.42;88.84;94430.63;4955910;28;20208;-78
2022/12/09 01:36:20;;;;;;;9.80;6.07;;;;;;;-2.42;88.75;94433.16;4965311;28;20228;-78
2022/12/09 01:38:46;;;;;;;7.07;5.73;;;;;;;-2.43;88.56;94431.53;4975336;28;20213;-78
2022/12/09 01:41:11;;;;;;;9.47;6.40;;;;;;;-2.45;88.17;94431.63;4980077;28;20245;-79
2022/12/09 01:43:38;;;;;;;8.03;5.20;;;;;;;-2.42;88.75;94425.53;4970466;28;20247;-79
2022/12/09 01:46:03;;;;;;;8.43;5.97;;;;;;;-2.47;88.12;94419.91;4965937;28;20201;-78
2022/12/09 01:48:31;;;;;;;7.90;5.60;;;;;;;-2.48;88.75;94418.28;4972257;28;20828;-79
2022/12/09 01:51:00;;;;;;;7.93;5.33;;;;;;;-2.49;88.34;94414.94;4974415;28;20184;-79
2022/12/09 01:53:28;;;;;;;7.80;5.70;;;;;;;-2.54;88.31;94413.59;4964423;28;20244;-79
2022/12/09 01:55:54;;;;;;;8.20;5.63;;;;;;;-2.61;88.65;94406.38;4960926;28;20680;-79
2022/12/09 01:58:20;;;;;;;8.40;6.03;;;;;;;-2.65;88.79;94401.56;4972501;28;20186;-79
2022/12/09 02:00:45;;;;;;;7.90;6.63;;;;;;;-2.87;89.78;94397.81;4966619;28;20294;-78
2022/12/09 02:03:11;;;;;;;9.30;5.47;;;;;;;-2.91;89.88;94390.50;4967186;28;20254;-79
2022/12/09 02:05:36;;;;;;;8.33;6.50;;;;;;;-2.93;90.39;94390.56;4955290;28;20211;-79
2022/12/09 02:08:02;;;;;;;10.30;6.53;;;;;;;-2.80;89.60;94383.03;4977920;28;20218;-79
2022/12/09 02:10:28;;;;;;;6.47;4.73;;;;;;;-2.86;89.56;94376.59;4949965;28;20577;-79
2022/12/09 02:13:00;;;;;;;6.93;5.03;;;;;;;-2.84;89.24;94379.03;4967367;28;20280;-79
2022/12/09 02:15:39;;;;;;;6.27;4.37;;;;;;;-2.84;89.39;94371.41;4972462;28;20214;-78
2022/12/09 02:18:41;;;;;;;6.37;4.87;;;;;;;-2.82;89.25;94372.16;4964251;28;20275;-79
2022/12/09 02:21:36;;;;;;;8.17;4.33;;;;;;;-2.79;88.70;94366.03;4961750;28;20244;-79
2022/12/09 02:24:07;;;;;;;6.27;4.60;;;;;;;-2.85;88.47;94365.50;4972905;28;20209;-79
2022/12/09 02:26:51;;;;;;;5.50;4.27;;;;;;;-2.87;88.42;94372.41;4952360;28;20296;-79
2022/12/09 02:29:46;;;;;;;5.43;4.30;;;;;;;-2.89;88.06;94365.81;4975915;28;20239;-79
2022/12/09 02:32:39;;;;;;;6.33;4.40;;;;;;;-2.89;88.12;94360.72;4972377;28;20188;-79
2022/12/09 02:35:10;;;;;;;7.60;4.60;;;;;;;-2.93;87.64;94356.72;4970149;28;20219;-79
2022/12/09 02:38:09;;;;;;;5.80;4.37;;;;;;;-2.92;87.41;94353.28;4968966;28;20197;-79
2022/12/09 02:40:43;;;;;;;6.80;4.13;;;;;;;-3.07;87.88;94351.72;4972743;28;20186;-79
2022/12/09 02:43:08;;;;;;;7.30;4.27;;;;;;;-3.06;87.42;94346.53;4957483;28;20208;-79
2022/12/09 02:45:34;;;;;;;6.00;4.10;;;;;;;-2.96;86.48;94354.41;4962400;28;20572;-79
2022/12/09 02:48:01;;;;;;;5.37;4.07;;;;;;;-2.89;85.15;94350.56;4971606;28;20192;-79
2022/12/09 02:50:29;;;;;;;5.90;4.20;;;;;;;-2.74;84.56;94341.16;4971598;28;20183;-79
2022/12/09 02:52:55;;;;;;;5.60;4.27;;;;;;;-2.69;83.91;94345.03;4966224;28;21061;-79
2022/12/09 02:55:21;;;;;;;5.23;4.20;;;;;;;-2.66;83.64;94351.66;4976067;28;20317;-79
2022/12/09 02:57:49;;;;;;;5.10;4.37;;;;;;;-2.64;83.51;94345.56;4974940;28;20192;-78
2022/12/09 03:00:15;;;;;;;7.90;4.57;;;;;;;-2.58;82.71;94341.81;4957262;28;20195;-79
2022/12/09 03:02:43;;;;;;;7.27;5.20;;;;;;;-2.63;82.70;94337.03;4968456;28;20199;-79
2022/12/09 03:05:24;;;;;;;5.40;4.53;;;;;;;-2.71;83.79;94331.63;4963001;28;20216;-79
2022/12/09 03:08:13;;;;;;;7.00;5.03;;;;;;;-2.72;83.97;94330.00;4972174;28;20197;-79
2022/12/09 03:10:42;;;;;;;6.03;4.80;;;;;;;-2.70;83.61;94334.97;4966743;28;20198;-79
2022/12/09 03:13:15;;;;;;;6.97;5.07;;;;;;;-2.74;83.55;94328.44;4974878;28;20207;-79
2022/12/09 03:15:45;;;;;;;7.03;5.07;;;;;;;-2.64;83.03;94325.25;4973356;28;20213;-78
2022/12/09 03:18:14;;;;;;;6.37;4.90;;;;;;;-2.71;83.54;94318.91;4959654;28;20195;-79
2022/12/09 03:20:40;;;;;;;6.70;5.50;;;;;;;-2.72;83.59;94316.47;4967936;28;20189;-79
2022/12/09 03:23:06;;;;;;;8.73;5.40;;;;;;;-2.72;83.74;94312.22;4972329;28;20195;-79
2022/12/09 03:25:33;;;;;;;10.10;6.37;;;;;;;-2.81;84.01;94306.91;4964819;28;20308;-79
2022/12/09 03:28:23;;;;;;;8.10;5.27;;;;;;;-2.79;84.20;94316.03;4970683;28;20653;-79
2022/12/09 03:30:48;;;;;;;7.80;5.70;;;;;;;-2.82;83.98;94316.25;4966518;28;20210;-79
2022/12/09 03:33:16;;;;;;;7.67;5.90;;;;;;;-2.85;84.51;94314.69;4992665;28;20548;-79
2022/12/09 03:35:44;;;;;;;7.73;5.43;;;;;;;-2.87;84.49;94314.00;4948313;28;20284;-79
2022/12/09 03:38:13;;;;;;;9.07;5.30;;;;;;;-2.89;84.51;94309.91;4977180;28;20209;-79
2022/12/09 03:40:39;;;;;;;9.83;5.53;;;;;;;-2.90;83.98;94303.22;4954586;28;20256;-79
2022/12/09 03:43:11;;;;;;;6.40;4.93;;;;;;;-2.86;84.21;94307.19;4948314;28;20246;-79
2022/12/09 03:45:37;;;;;;;7.43;5.73;;;;;;;-2.93;84.32;94305.94;4969091;28;20296;-79
2022/12/09 03:48:02;;;;;;;7.80;4.83;;;;;;;-2.93;83.85;94295.78;4971138;28;20223;-78
2022/12/09 03:50:33;;;;;;;7.40;5.40;;;;;;;-2.92;84.20;94294.84;4972008;28;20608;-79
2022/12/09 03:53:05;;;;;;;7.20;5.33;;;;;;;-2.94;84.17;94301.75;4976664;28;20210;-80
2022/12/09 03:55:42;;;;;;;7.37;4.73;;;;;;;-2.96;84.25;94296.78;4976926;28;20203;-79
2022/12/09 03:58:10;;;;;;;8.67;5.27;;;;;;;-2.93;84.28;94299.13;4987487;28;20213;-79
2022/12/09 04:00:36;;;;;;;7.27;5.60;;;;;;;-2.96;83.93;94306.94;4987875;28;20225;-79
2022/12/09 04:03:02;;;;;;;6.63;4.87;;;;;;;-2.96;84.08;94308.69;4975327;28;20778;-79
2022/12/09 04:05:28;;;;;;;8.03;5.47;;;;;;;-2.96;84.10;94304.41;4976988;28;20218;-79
2022/12/09 04:07:53;;;;;;;6.30;5.23;;;;;;;-2.93;84.78;94308.47;4982975;28;20197;-78
2022/12/09 04:10:18;;;;;;;8.87;5.60;;;;;;;-2.93;84.56;94304.19;4963223;28;20205;-79
2022/12/09 04:12:44;;;;;;;8.80;5.27;;;;;;;-2.94;84.41;94302.56;4952281;28;20212;-79
2022/12/09 04:15:09;;;;;;;7.10;5.13;;;;;;;-2.90;84.08;94298.13;4973159;28;20247;-79
2022/12/09 04:17:34;;;;;;;9.63;5.63;;;;;;;-2.89;84.00;94297.22;4981291;28;20192;-79
2022/12/09 04:20:00;;;;;;;5.63;4.57;;;;;;;-2.86;83.79;94286.84;4978652;28;20317;-79
2022/12/09 04:22:25;;;;;;;8.67;6.13;;;;;;;-2.89;83.60;94282.78;4954874;28;20186;-78
2022/12/09 04:24:50;;;;;;;8.87;5.83;;;;;;;-2.91;83.40;94282.09;4961113;28;20244;-79
2022/12/09 04:27:16;;;;;;;8.23;5.67;;;;;;;-2.97;83.55;94269.75;4964175;28;20687;-79
2022/12/09 04:29:41;;;;;;;7.20;5.97;;;;;;;-2.99;83.34;94268.25;4967758;28;20189;-79
2022/12/09 04:32:06;;;;;;;8.43;5.60;;;;;;;-3.00;83.64;94262.34;4978118;28;20197;-79
2022/12/09 04:34:32;;;;;;;8.87;6.00;;;;;;;-2.97;83.81;94263.88;4966719;28;20213;-79
2022/12/09 04:36:57;;;;;;;7.97;5.40;;;;;;;-2.90;83.33;94260.03;4975471;28;20224;-79
2022/12/09 04:39:23;;;;;;;7.00;5.40;;;;;;;-2.89;82.84;94259.94;4970116;28;20687;-79
2022/12/09 04:41:48;;;;;;;7.30;6.00;;;;;;;-2.87;82.80;94252.19;4968603;28;20654;-79
2022/12/09 04:44:14;;;;;;;9.13;5.73;;;;;;;-2.81;82.45;94248.47;4968189;28;20193;-78
2022/12/09 04:46:39;;;;;;;7.07;5.53;;;;;;;-2.83;82.74;94243.47;4967999;28;20191;-79
2022/12/09 04:49:04;;;;;;;6.43;5.13;;;;;;;-2.83;82.57;94246.00;4972546;28;20189;-79
2022/12/09 04:51:29;;;;;;;7.77;5.87;;;;;;;-3.02;83.36;94238.75;4976785;28;20188;-79
2022/12/09 04:53:55;;;;;;;8.67;5.70;;;;;;;-3.02;83.33;94238.75;4970787;28;20227;-78
2022/12/09 04:56:20;;;;;;;8.43;6.00;;;;;;;-2.91;82.68;94235.53;4967376;28;20220;-79
2022/12/09 04:58:47;;;;;;;7.80;5.97;;;;;;;-2.90;82.15;94240.53;4966158;28;20285;-78
2022/12/09 05:01:15;;;;;;;8.73;5.37;;;;;;;-2.85;82.03;94235.94;4981459;28;20189;-78
2022/12/09 05:03:40;;;;;;;14.37;6.17;;;;;;;-2.83;81.87;94232.47;4971921;28;20247;-78
2022/12/09 05:06:08;;;;;;;7.73;5.43;;;;;;;-2.85;81.91;94224.97;4965426;28;20185;-79
2022/12/09 05:08:33;;;;;;;7.73;6.07;;;;;;;-2.87;81.76;94229.34;4960145;29;20191;-79
2022/12/09 05:10:59;;;;;;;7.90;6.20;;;;;;;-2.82;82.12;94236.69;4949851;28;20185;-79
2022/12/09 05:13:26;;;;;;;7.50;5.93;;;;;;;-2.77;81.21;94227.00;4961071;28;20292;-79
2022/12/09 05:16:04;;;;;;;9.67;5.90;;;;;;;-2.83;81.41;94228.22;4974581;28;20289;-79
2022/12/09 05:18:29;;;;;;;10.40;5.70;;;;;;;-2.82;82.21;94226.50;4959050;28;20191;-79
2022/12/09 05:20:55;;;;;;;11.07;5.93;;;;;;;-2.81;81.21;94231.50;4967851;28;20181;-79
2022/12/09 05:23:20;;;;;;;10.33;6.40;;;;;;;-2.81;81.49;94228.94;4968265;28;20667;-79
2022/12/09 05:25:45;;;;;;;8.13;5.67;;;;;;;-2.80;82.17;94228.03;4962504;28;20603;-79
2022/12/09 05:28:11;;;;;;;8.00;6.50;;;;;;;-2.82;82.16;94224.78;4968592;28;20188;-78
2022/12/09 05:30:37;;;;;;;7.90;6.30;;;;;;;-2.82;81.20;94222.25;4979335;28;20297;-79
2022/12/09 05:33:02;;;;;;;9.60;6.43;;;;;;;-2.84;82.33;94224.06;4954595;28;20277;-79
2022/12/09 05:35:27;;;;;;;9.17;6.77;;;;;;;-2.86;82.09;94223.34;4963253;28;20268;-79
2022/12/09 05:37:53;;;;;;;10.33;6.47;;;;;;;-2.87;82.45;94221.72;4969900;28;20193;-79
2022/12/09 05:40:18;;;;;;;8.00;5.83;;;;;;;-2.81;82.18;94217.97;4955195;28;20183;-79
2022/12/09 05:42:43;;;;;;;9.90;7.17;;;;;;;-2.93;82.91;94212.75;4975150;28;20188;-79
2022/12/09 05:45:09;;;;;;;8.77;6.27;;;;;;;-2.89;82.24;94210.84;4963485;28;20208;-79
2022/12/09 05:47:35;;;;;;;8.27;6.40;;;;;;;-2.80;82.24;94217.88;4959509;28;20363;-79
2022/12/09 05:50:01;;;;;;;11.23;6.47;;;;;;;-2.77;81.77;94210.03;4967647;28;20177;-78
2022/12/09 05:52:26;;;;;;;8.50;6.80;;;;;;;-2.84;82.15;94211.34;4960441;28;20243;-80
2022/12/09 05:54:51;;;;;;;9.87;7.80;;;;;;;-2.64;81.84;94203.25;4960794;28;20236;-79
2022/12/09 05:57:17;;;;;;;11.40;7.30;;;;;;;-2.48;80.90;94194.59;4992069;28;20189;-79
2022/12/09 05:59:42;;;;;;;10.00;7.10;;;;;;;-2.52;80.69;94193.19;4963416;28;20190;-79
2022/12/09 06:02:07;;;;;;;9.43;7.37;;;;;;;-2.37;79.83;94192.97;4965922;28;20239;-79
2022/12/09 06:04:32;;;;;;;10.07;7.17;;;;;;;-2.35;79.47;94193.69;4968837;28;20212;-79
2022/12/09 06:06:58;;;;;;;9.20;7.07;;;;;;;-2.33;79.61;94198.66;4949938;28;20196;-79
2022/12/09 06:09:23;;;;;;;11.57;7.37;;;;;;;-2.25;79.38;94195.59;4947345;28;20185;-79
2022/12/09 06:11:48;;;;;;;11.10;7.70;;;;;;;-2.28;79.61;94194.09;4942965;28;20193;-79
2022/12/09 06:14:14;;;;;;;11.40;7.43;;;;;;;-2.22;79.96;94190.28;4963197;28;20232;-80
2022/12/09 06:16:39;;;;;;;9.93;7.33;;;;;;;-2.17;79.79;94190.81;4944666;28;20658;-80
2022/12/09 06:19:04;;;;;;;11.17;8.13;;;;;;;-2.25;80.58;94193.88;4958052;28;20270;-79
2022/12/09 06:21:30;;;;;;;14.27;8.57;;;;;;;-2.17;80.98;94193.34;4981481;28;20202;-79
2022/12/09 06:23:55;;;;;;;13.00;8.23;;;;;;;-2.11;80.66;94190.41;4950542;28;20260;-79
2022/12/09 06:26:26;;;;;;;12.83;8.50;;;;;;;-2.14;80.90;94191.41;4980764;28;20256;-78
2022/12/09 06:28:52;;;;;;;14.70;10.00;;;;;;;-2.13;81.46;94187.13;4947879;28;20252;-78
2022/12/09 06:31:18;;;;;;;13.10;8.83;;;;;;;-2.11;81.09;94186.13;4969220;28;20223;-79
2022/12/09 06:33:44;;;;;;;14.73;9.47;;;;;;;-2.16;81.40;94183.06;4978910;28;20214;-80
2022/12/09 06:36:09;;;;;;;14.00;9.43;;;;;;;-2.16;82.12;94188.16;4980349;28;20275;-79
2022/12/09 06:38:35;;;;;;;15.03;9.57;;;;;;;-2.19;82.44;94185.81;4966132;28;20196;-79
2022/12/09 06:41:04;;;;;;;15.83;9.83;;;;;;;-2.17;82.30;94189.06;4969545;28;20196;-78
2022/12/09 06:43:30;;;;;;;14.27;9.87;;;;;;;-2.22;81.82;94190.28;4973913;28;20189;-79
2022/12/09 06:45:55;;;;;;;15.37;9.43;;;;;;;-2.17;81.44;94186.53;4974743;28;20210;-79
2022/12/09 06:48:20;;;;;;;15.60;9.97;;;;;;;-2.16;81.82;94198.31;4971051;28;20190;-79
2022/12/09 06:50:46;;;;;;;12.73;9.53;;;;;;;-2.21;81.29;94192.72;4956182;28;20245;-80
2022/12/09 06:53:11;;;;;;;12.30;8.67;;;;;;;-2.16;81.93;94192.44;4972013;28;20241;-79
2022/12/09 06:55:36;;;;;;;14.87;9.10;;;;;;;-2.19;81.11;94192.66;4970870;28;20263;-79
2022/12/09 06:58:02;;;;;;;12.97;9.47;;;;;;;-2.14;81.34;94196.47;4976913;28;20252;-80
2022/12/09 07:00:27;;;;;;;12.00;8.30;;;;;;;-2.18;81.13;94187.44;4961036;28;20188;-79
2022/12/09 07:02:53;;;;;;;13.47;8.97;;;;;;;-2.09;80.43;94186.81;4968487;28;20189;-79
2022/12/09 07:05:18;;;;;;;15.63;9.93;;;;;;;-2.11;80.55;94185.31;4961653;28;20714;-79
2022/12/09 07:07:43;;;;;;;14.53;9.33;;;;;;;-2.13;80.32;94180.31;4972711;28;20204;-79
2022/12/09 07:10:09;;;;;;;12.37;10.00;;;;;;;-2.13;80.30;94192.22;4974704;28;20181;-79
2022/12/09 07:12:35;;;;;;;12.17;8.47;;;;;;;-2.11;79.84;94181.03;4960241;28;20184;-79
2022/12/09 07:15:00;;;;;;;14.73;9.53;;;;;;;-2.05;79.03;94179.78;4968965;28;20827;-79
2022/12/09 07:17:25;;;;;;;15.10;9.90;;;;;;;-2.06;79.30;94184.06;4965280;28;20621;-80
2022/12/09 07:19:51;;;;;;;12.60;8.90;;;;;;;-2.04;79.26;94177.13;4972257;28;20520;-79
2022/12/09 07:22:16;;;;;;;14.63;9.07;;;;;;;-2.06;78.97;94185.78;4974145;28;20243;-79
2022/12/09 07:24:42;;;;;;;14.57;8.57;;;;;;;-1.98;78.16;94177.63;4962080;28;20215;-80
2022/12/09 07:27:08;;;;;;;11.90;8.97;;;;;;;-1.86;77.87;94179.31;4962216;28;20189;-79
2022/12/09 07:29:34;;;;;;;13.87;8.80;;;;;;;-1.85;77.63;94181.78;4966910;28;20181;-80
2022/12/09 07:31:59;;;;;;;12.73;8.47;;;;;;;-1.79;77.29;94173.72;4965076;28;20189;-79
2022/12/09 07:34:25;;;;;;;13.27;9.73;;;;;;;-1.78;77.41;94171.97;4957271;28;20221;-79
2022/12/09 07:36:50;;;;;;;16.30;10.00;;;;;;;-1.74;76.75;94173.41;4946647;28;20192;-79
2022/12/09 07:39:16;;;;;;;13.00;9.00;;;;;;;-1.67;77.08;94179.69;4954395;28;20641;-80
2022/12/09 07:41:42;;;;;;;13.43;8.50;;;;;;;-1.68;76.44;94180.59;4982529;28;20182;-78
2022/12/09 07:44:07;;;;;;;12.20;8.57;;;;;;;-1.59;76.42;94182.50;4963359;28;20209;-80
2022/12/09 07:46:33;;;;;;;11.00;7.80;;;;;;;-1.50;75.90;94188.69;4967572;28;20884;-80
2022/12/09 07:49:00;;;;;;;11.53;8.17;;;;;;;-1.48;75.41;94174.94;4962430;28;20226;-79
2022/12/09 07:51:25;;;;;;;13.90;9.13;;;;;;;-1.49;76.24;94180.13;4959842;28;20189;-79
2022/12/09 07:53:51;;;;;;;14.70;9.30;;;;;;;-1.43;75.96;94188.13;4973638;28;20788;-79
2022/12/09 07:56:17;;;;;;;12.93;9.27;;;;;;;-1.44;75.27;94186.50;4964421;28;20665;-79
2022/12/09 07:58:43;;;;;;;11.27;8.67;;;;;;;-1.40;75.22;94186.31;4965753;28;20195;-80
2022/12/09 08:01:12;;;;;;;13.50;8.90;;;;;;;-1.39;76.46;94187.94;4982802;28;20191;-80
2022/12/09 08:03:38;;;;;;;13.93;9.13;;;;;;;-1.33;75.34;94182.38;4968036;28;20656;-80
2022/12/09 08:06:04;;;;;;;12.70;8.70;;;;;;;-1.23;75.15;94181.63;4966148;28;20207;-80
2022/12/09 08:08:30;;;;;;;12.53;8.43;;;;;;;-1.13;75.04;94181.78;4959863;28;20659;-81
2022/12/09 08:10:55;;;;;;;10.87;8.07;;;;;;;-1.11;74.95;94179.13;4971349;28;20189;-80
2022/12/09 08:13:20;;;;;;;14.57;8.70;;;;;;;-1.12;74.58;94178.31;4964775;28;20216;-79
2022/12/09 08:15:46;;;;;;;12.20;8.83;;;;;;;-1.03;74.69;94177.63;4959095;28;20216;-79
2022/12/09 08:18:11;;;;;;;12.67;8.40;;;;;;;-0.98;74.27;94178.09;4967830;28;20179;-80
2022/12/09 08:20:38;;;;;;;13.40;9.10;;;;;;;-0.86;74.33;94179.78;4972351;28;20192;-80
2022/12/09 08:23:04;;;;;;;12.03;9.43;;;;;;;-0.80;74.35;94172.59;4967176;28;20220;-79
2022/12/09 08:25:29;;;;;;;15.87;8.90;;;;;;;-0.79;73.27;94166.59;4960313;28;20224;-79
2022/12/09 08:27:54;;;;;;;15.93;9.67;;;;;;;-0.75;73.76;94166.22;4974024;28;20230;-79
2022/12/09 08:30:19;;;;;;;14.23;9.57;;;;;;;-0.66;73.74;94167.28;4949003;28;20195;-80
2022/12/09 08:32:46;;;;;;;14.43;9.17;;;;;;;-0.63;74.09;94167.06;4962211;28;20198;-79
2022/12/09 08:35:13;;;;;;;12.70;8.93;;;;;;;-0.50;73.28;94167.78;4958873;28;20235;-80
2022/12/09 08:37:40;;;;;;;14.00;9.47;;;;;;;-0.38;73.18;94161.75;4969279;28;20696;-80
2022/12/09 08:40:06;;;;;;;15.17;10.07;;;;;;;-0.25;72.96;94160.84;4962654;28;20198;-80
2022/12/09 08:42:31;;;;;;;16.70;11.07;;;;;;;-0.26;72.17;94152.38;4983879;28;20194;-80
2022/12/09 08:44:56;;;;;;;14.80;10.10;;;;;;;-0.15;72.63;94151.56;4964546;28;20235;-79
2022/12/09 08:47:22;;;;;;;16.77;10.60;;;;;;;-0.20;72.09;94158.72;4967387;28;20992;-79
2022/12/09 08:49:47;;;;;;;17.33;11.23;;;;;;;-0.24;72.88;94150.50;4987532;28;20278;-80
2022/12/09 08:52:12;;;;;;;20.53;12.33;;;;;;;-0.20;72.86;94146.78;4974210;28;20192;-80
2022/12/09 08:54:38;;;;;;;14.40;10.47;;;;;;;-0.13;73.03;94152.25;4963439;28;20736;-80
2022/12/09 08:57:03;;;;;;;14.27;9.90;;;;;;;-0.22;72.88;94152.94;4952932;28;20571;-80
2022/12/09 08:59:28;;;;;;;17.83;10.60;;;;;;;-0.19;73.90;94156.06;4950830;28;20279;-79
2022/12/09 09:01:54;;;;;;;14.33;10.10;;;;;;;-0.24;72.29;94147.97;4971252;28;20208;-80
2022/12/09 09:04:21;;;;;;;11.53;8.60;;;;;;;-0.15;73.05;94143.91;4963640;28;20215;-80
2022/12/09 09:06:48;;;;;;;16.53;11.23;;;;;;;-0.20;72.91;94145.97;4948822;28;20679;-80
2022/12/09 09:09:14;;;;;;;14.77;10.67;;;;;;;-0.28;73.27;94147.38;4952622;28;20665;-80
2022/12/09 09:11:40;;;;;;;23.40;14.07;;;;;;;-0.43;72.34;94151.09;4964820;28;20803;-81
2022/12/09 09:14:06;;;;;;;53.00;27.93;;;;;;;-0.54;73.39;94152.81;4969956;28;20214;-79
2022/12/09 09:16:32;;;;;;;16.07;11.47;;;;;;;-0.54;73.48;94142.59;4953279;28;20192;-80
2022/12/09 09:18:58;;;;;;;40.97;22.63;;;;;;;-0.59;73.37;94137.88;4970539;28;20245;-81
2022/12/09 09:21:25;;;;;;;37.57;22.47;;;;;;;-0.63;73.25;94131.34;4964749;28;20196;-79
2022/12/09 09:23:50;;;;;;;28.97;16.50;;;;;;;-0.52;74.22;94133.94;4964360;28;20202;-79
2022/12/09 09:26:21;;;;;;;16.30;11.17;;;;;;;-0.41;74.30;94131.38;4961044;28;20203;-80
2022/12/09 09:28:47;;;;;;;18.53;10.97;;;;;;;-0.49;74.08;94133.69;4969312;28;20196;-81
2022/12/09 09:31:15;;;;;;;14.80;11.07;;;;;;;-0.34;74.04;94127.44;4970807;28;20202;-79
2022/12/09 09:33:41;;;;;;;18.03;11.20;;;;;;;-0.28;74.91;94123.59;4963384;28;20203;-79
2022/12/09 09:36:09;;;;;;;15.87;11.03;;;;;;;-0.03;74.30;94137.84;4974539;28;20190;-79
2022/12/09 09:38:34;;;;;;;14.37;10.43;;;;;;;-0.01;74.54;94138.53;4968367;28;20208;-77
2022/12/09 09:41:00;;;;;;;13.47;10.00;;;;;;;0.12;74.10;94128.19;4947719;28;20700;-78
2022/12/09 09:43:30;;;;;;;14.63;9.73;;;;;;;0.21;73.39;94128.28;4960872;28;20275;-78
2022/12/09 09:45:57;;;;;;;14.47;11.17;;;;;;;0.22;72.99;94129.91;4980537;28;20633;-79
2022/12/09 09:48:25;;;;;;;14.83;10.60;;;;;;;0.42;73.00;94124.97;4945656;28;20192;-78
2022/12/09 09:51:09;;;;;;;14.23;10.37;;;;;;;0.50;71.39;94118.31;4968541;28;20189;-78
2022/12/09 09:53:34;;;;;;;14.90;10.30;;;;;;;0.34;72.35;94114.53;4964148;28;20774;-78
2022/12/09 09:56:04;;;;;;;16.97;10.67;;;;;;;0.44;72.66;94118.00;4965490;28;20327;-80
2022/12/09 09:58:37;;;;;;;15.53;11.40;;;;;;;0.50;70.72;94117.50;4962521;28;20524;-80
2022/12/09 10:01:08;;;;;;;15.77;10.77;;;;;;;0.48;71.14;94115.09;4969150;28;20204;-81
2022/12/09 10:03:48;;;;;;;15.73;11.10;;;;;;;0.47;71.13;94118.56;4968327;28;20191;-80
2022/12/09 10:06:24;;;;;;;17.23;11.50;;;;;;;0.31;71.91;94112.25;4944942;28;20271;-80
2022/12/09 10:08:57;;;;;;;15.40;10.83;;;;;;;0.38;73.34;94113.38;4969446;28;20188;-80
2022/12/09 10:11:47;;;;;;;17.90;12.03;;;;;;;0.56;72.63;94111.94;4951840;28;20634;-81
2022/12/09 10:14:16;;;;;;;15.10;11.33;;;;;;;0.65;71.06;94108.63;4969425;28;20303;-80
2022/12/09 10:16:44;;;;;;;16.33;10.93;;;;;;;0.76;71.79;94107.75;4958188;28;20207;-81
2022/12/09 10:19:29;;;;;;;16.07;10.13;;;;;;;0.69;71.21;94107.44;4974303;28;20189;-78
2022/12/09 10:21:55;;;;;;;18.17;10.93;;;;;;;0.80;70.83;94112.53;4951143;28;20184;-80
2022/12/09 10:24:32;;;;;;;16.40;10.97;;;;;;;0.49;70.44;94106.50;4951141;28;20833;-83
2022/12/09 10:27:02;;;;;;;16.37;11.37;;;;;;;0.81;71.32;94096.25;4969347;28;20191;-81
2022/12/09 10:29:56;;;;;;;17.20;11.80;;;;;;;1.12;69.88;94094.53;4965292;28;20650;-79
2022/12/09 10:32:25;;;;;;;16.67;11.60;;;;;;;0.88;70.05;94093.19;4963236;28;20555;-80
2022/12/09 10:34:50;;;;;;;17.83;11.43;;;;;;;0.87;70.56;94094.94;4969027;28;20247;-81
2022/12/09 10:37:26;;;;;;;16.90;11.90;;;;;;;1.33;69.69;94094.53;4969757;28;20222;-80
2022/12/09 10:40:14;;;;;;;17.43;11.93;;;;;;;1.44;68.80;94093.66;4950064;28;20247;-80
2022/12/09 10:45:31;;;;;;;16.43;11.53;;;;;;;1.64;68.29;94079.16;4981849;28;20598;-81
2022/12/09 10:47:56;;;;;;;18.23;12.83;;;;;;;1.32;68.57;94075.00;4970510;28;20184;-80
2022/12/09 10:50:30;;;;;;;16.90;12.03;;;;;;;1.63;69.38;94072.44;4971586;28;20225;-80
2022/12/09 10:52:56;;;;;;;19.10;12.27;;;;;;;1.27;69.11;94073.78;4986023;28;20653;-81
2022/12/09 10:55:35;;;;;;;18.00;12.00;;;;;;;1.41;68.24;94069.13;4956929;28;20291;-81
2022/12/09 10:58:15;;;;;;;16.23;12.10;;;;;;;1.39;69.09;94080.41;4967272;28;20239;-81
2022/12/09 11:00:40;;;;;;;17.40;12.23;;;;;;;1.32;68.41;94075.00;4960169;28;20184;-80
2022/12/09 11:03:23;;;;;;;20.77;12.57;;;;;;;1.10;69.48;94078.53;4984682;28;20273;-81
2022/12/09 11:05:55;;;;;;;20.03;12.80;;;;;;;0.99;71.21;94076.06;4957330;28;20308;-79
2022/12/09 11:08:21;;;;;;;16.87;12.73;;;;;;;1.08;70.34;94071.94;4960942;28;20656;-81
2022/12/09 11:10:48;;;;;;;19.03;12.97;;;;;;;0.97;71.57;94066.88;5000846;28;20192;-79
2022/12/09 11:13:17;;;;;;;20.30;13.00;;;;;;;0.81;71.97;94063.03;4987110;28;20666;-82
2022/12/09 11:15:44;;;;;;;21.73;13.23;;;;;;;0.93;72.46;94057.84;4959540;28;20204;-79
2022/12/09 11:18:21;;;;;;;20.57;14.00;;;;;;;0.82;73.16;94061.28;4961602;28;20563;-81
2022/12/09 11:20:58;;;;;;;20.30;14.23;;;;;;;0.78;72.95;94067.56;4968881;28;20287;-80
2022/12/09 11:23:23;;;;;;;19.43;12.90;;;;;;;1.05;72.97;94067.84;4970137;28;20183;-79
2022/12/09 11:26:04;;;;;;;20.13;13.70;;;;;;;1.00;73.16;94072.56;4995352;28;20223;-82
2022/12/09 11:28:32;;;;;;;19.60;14.27;;;;;;;1.01;73.44;94060.59;4982545;28;20180;-80
2022/12/09 11:31:06;;;;;;;20.33;15.00;;;;;;;0.65;74.30;94049.88;4960496;28;20181;-83
2022/12/09 11:33:34;;;;;;;24.50;16.33;;;;;;;0.68;74.54;94051.38;4960232;28;20227;-81